Time;durP1;ratioP1;P1;durP2;ratioP2;P2;SDS_P1;SDS_P2;PMS_P1;PMS_P2;Temp;Humidity;BMP_temperature;BMP_pressure;BME280_temperature;BME280_humidity;BME280_pressure;Samples;Min_cycle;Max_cycle;Signal;HPM_P1;HPM_P2
2022/07/24 00:00:08;;;;;;;23.23;15.23;;;;;;;20.48;97.95;99127.39;4049053;87;21103;-81
2022/07/24 00:06:13;;;;;;;22.85;18.25;;;;;;;20.48;98.12;99139.91;4014550;87;21098;-82
2022/07/24 00:12:14;;;;;;;25.08;18.35;;;;;;;20.43;97.97;99132.08;4016214;87;21099;-82
2022/07/24 00:18:16;;;;;;;20.25;15.35;;;;;;;20.43;98.26;99141.81;4080086;86;20993;-82
2022/07/24 00:24:18;;;;;;;24.47;15.83;;;;;;;20.26;98.51;99152.00;4081848;86;21022;-84
2022/07/24 00:30:23;;;;;;;20.17;16.67;;;;;;;20.34;98.82;99148.61;4077373;86;21032;-82
2022/07/24 00:36:25;;;;;;;22.02;15.93;;;;;;;20.33;98.71;99147.66;4079465;86;21117;-82
2022/07/24 00:42:28;;;;;;;18.07;15.30;;;;;;;20.38;99.00;99141.55;4024084;87;21060;-82
2022/07/24 00:48:30;;;;;;;19.32;16.48;;;;;;;20.42;99.01;99138.88;4018924;87;21577;-82
2022/07/24 00:54:34;;;;;;;20.95;16.62;;;;;;;20.43;99.01;99143.80;3945131;89;21638;-82
2022/07/24 01:00:40;;;;;;;22.80;17.52;;;;;;;20.40;99.12;99149.64;4035011;87;21049;-84
2022/07/24 01:06:45;;;;;;;21.48;17.75;;;;;;;20.32;99.11;99144.69;4037408;87;21065;-82
2022/07/24 01:12:47;;;;;;;20.35;16.55;;;;;;;20.26;99.39;99138.09;4007171;87;21017;-83
2022/07/24 01:18:48;;;;;;;19.57;17.23;;;;;;;20.20;99.71;99133.05;4009221;87;21135;-82
2022/07/24 01:24:50;;;;;;;20.72;17.37;;;;;;;20.17;99.90;99133.17;4034128;87;22184;-82
2022/07/24 01:30:54;;;;;;;25.75;16.90;;;;;;;20.18;99.99;99127.77;4034096;87;21584;-82
2022/07/24 01:37:00;;;;;;;19.60;17.48;;;;;;;20.15;100.00;99132.81;3945077;89;21115;-81
2022/07/24 01:43:07;;;;;;;28.77;20.02;;;;;;;20.09;100.00;99136.68;4052475;85;21074;-83
2022/07/24 01:49:13;;;;;;;22.25;17.98;;;;;;;20.08;100.00;99145.45;4053368;86;21725;-82
2022/07/24 01:55:17;;;;;;;22.13;17.95;;;;;;;20.07;100.00;99146.68;4053242;86;21624;-82
2022/07/24 02:01:29;;;;;;;23.65;17.67;;;;;;;20.03;100.00;99159.86;4055107;86;21089;-82
2022/07/24 02:07:31;;;;;;;24.12;18.48;;;;;;;20.05;100.00;99161.02;4054240;86;21557;-82
2022/07/24 02:13:34;;;;;;;24.02;19.30;;;;;;;20.06;100.00;99152.08;4053263;86;21094;-82
2022/07/24 02:19:35;;;;;;;27.00;20.50;;;;;;;20.07;100.00;99162.75;3954806;89;21117;-82
2022/07/24 02:25:37;;;;;;;27.35;20.15;;;;;;;20.07;100.00;99175.86;4056241;86;21046;-82
2022/07/24 02:31:38;;;;;;;29.32;24.07;;;;;;;20.01;100.00;99176.20;3948521;89;21079;-83
2022/07/24 02:37:49;;;;;;;28.92;24.85;;;;;;;20.00;100.00;99180.97;4055132;86;21111;-81
2022/07/24 02:43:50;;;;;;;32.30;25.20;;;;;;;19.96;100.00;99186.44;3949151;89;21061;-81
2022/07/24 02:49:52;;;;;;;30.37;24.45;;;;;;;19.94;100.00;99186.88;4058862;86;21024;-83
2022/07/24 02:55:58;;;;;;;30.37;23.13;;;;;;;19.94;100.00;99195.81;4059433;86;21048;-81
2022/07/24 03:02:06;;;;;;;31.93;21.65;;;;;;;19.90;100.00;99212.58;4061522;86;21070;-81
2022/07/24 03:08:08;;;;;;;25.08;20.68;;;;;;;19.87;100.00;99214.81;4083827;86;21128;-81
2022/07/24 03:14:11;;;;;;;28.05;20.15;;;;;;;19.89;100.00;99217.95;4078300;86;21036;-81
2022/07/24 03:20:17;;;;;;;21.37;19.15;;;;;;;19.90;100.00;99228.46;4078132;86;21088;-82
2022/07/24 03:26:18;;;;;;;26.23;18.12;;;;;;;19.84;100.00;99230.95;4076881;86;21048;-82
2022/07/24 03:32:19;;;;;;;20.55;16.95;;;;;;;19.81;100.00;99245.70;4077378;86;21102;-81
2022/07/24 03:38:21;;;;;;;19.20;15.75;;;;;;;19.75;100.00;99241.08;4076080;86;22291;-81
2022/07/24 03:44:24;;;;;;;18.62;15.30;;;;;;;19.69;100.00;99248.36;4056424;86;21017;-82
2022/07/24 03:50:28;;;;;;;20.02;13.88;;;;;;;19.64;100.00;99252.43;4055544;85;21144;-81
2022/07/24 03:56:31;;;;;;;16.90;13.25;;;;;;;19.62;100.00;99252.69;3947280;89;21075;-81
2022/07/24 04:02:34;;;;;;;18.60;13.75;;;;;;;19.60;100.00;99267.01;4080005;86;21525;-81
2022/07/24 04:08:36;;;;;;;17.05;13.48;;;;;;;19.57;100.00;99271.23;4081909;85;21635;-82
2022/07/24 04:14:44;;;;;;;24.32;18.30;;;;;;;19.55;100.00;99278.61;4079730;86;21080;-83
2022/07/24 04:20:54;;;;;;;19.65;16.97;;;;;;;19.49;100.00;99285.09;4017389;87;21554;-82
2022/07/24 04:27:03;;;;;;;20.17;16.80;;;;;;;19.47;100.00;99285.52;4055432;86;21081;-82
2022/07/24 04:33:04;;;;;;;16.93;13.55;;;;;;;19.46;100.00;99288.72;3947994;89;21070;-82
2022/07/24 04:39:11;;;;;;;16.57;12.40;;;;;;;19.40;100.00;99309.27;4057934;86;21085;-82
2022/07/24 04:45:15;;;;;;;16.12;13.18;;;;;;;19.40;99.83;99316.80;4026222;87;21062;-84
2022/07/24 04:51:21;;;;;;;17.85;13.38;;;;;;;19.36;99.22;99325.78;4003554;87;21067;-82
2022/07/24 04:57:28;;;;;;;16.73;12.82;;;;;;;19.34;99.38;99327.59;4005708;87;21617;-82
2022/07/24 05:03:29;;;;;;;13.85;11.60;;;;;;;19.33;99.08;99332.19;4001562;87;21232;-82
2022/07/24 05:09:31;;;;;;;15.38;10.60;;;;;;;19.35;98.96;99325.62;4027276;87;21060;-83
2022/07/24 05:15:32;;;;;;;15.63;10.20;;;;;;;19.39;98.78;99329.09;4000302;87;21095;-82
2022/07/24 05:21:34;;;;;;;11.53;9.65;;;;;;;19.35;98.08;99333.94;3999687;87;22143;-83
2022/07/24 05:27:43;;;;;;;11.00;9.15;;;;;;;19.33;97.81;99327.43;4006699;87;21053;-82
2022/07/24 05:33:44;;;;;;;13.18;8.35;;;;;;;19.40;97.68;99332.07;4032489;87;21264;-82
2022/07/24 05:39:50;;;;;;;10.53;8.65;;;;;;;19.52;97.76;99335.00;3936477;88;21476;-82
2022/07/24 05:45:56;;;;;;;13.05;9.00;;;;;;;19.70;97.36;99340.97;4057847;87;21564;-83
2022/07/24 05:51:57;;;;;;;12.95;9.15;;;;;;;19.76;96.82;99342.66;4057667;86;21505;-82
2022/07/24 05:57:59;;;;;;;12.58;9.18;;;;;;;19.79;96.50;99339.82;4050067;87;21058;-82
2022/07/24 06:04:01;;;;;;;10.32;8.58;;;;;;;19.77;95.95;99343.63;4052154;87;21140;-82
2022/07/24 06:10:14;;;;;;;12.90;8.65;;;;;;;19.81;95.60;99348.48;4056133;86;21038;-82
2022/07/24 06:16:20;;;;;;;11.20;8.08;;;;;;;19.86;95.30;99349.38;3998106;88;21662;-82
2022/07/24 06:22:31;;;;;;;9.83;7.00;;;;;;;19.89;94.69;99349.91;4055295;87;21180;-82
2022/07/24 06:28:36;;;;;;;12.90;7.20;;;;;;;19.93;94.61;99358.18;4050160;86;21077;-82
2022/07/24 06:34:53;;;;;;;10.58;7.28;;;;;;;20.06;94.20;99350.77;4053778;86;21116;-83
2022/07/24 06:41:04;;;;;;;8.55;5.80;;;;;;;20.21;93.82;99357.60;4050125;86;21101;-83
2022/07/24 06:47:06;;;;;;;8.90;4.67;;;;;;;20.38;92.96;99357.02;4078112;86;21049;-83
2022/07/24 06:53:08;;;;;;;6.03;3.80;;;;;;;20.42;91.44;99355.75;4080194;85;21029;-83
2022/07/24 06:59:12;;;;;;;6.42;4.20;;;;;;;20.58;90.33;99361.31;4070461;86;21021;-83
2022/07/24 07:05:23;;;;;;;4.62;3.05;;;;;;;21.01;89.71;99359.71;4084274;85;31118;-83
2022/07/24 07:11:52;;;;;;;4.35;3.35;;;;;;;21.56;87.53;99358.06;4009272;87;21190;-82
2022/07/24 07:18:10;;;;;;;7.25;2.90;;;;;;;22.04;86.26;99366.26;4147883;86;21032;-83
2022/07/24 07:24:11;;;;;;;5.78;2.87;;;;;;;22.43;84.76;99372.84;4146652;86;21005;-83
2022/07/24 07:30:17;;;;;;;5.80;2.80;;;;;;;22.63;82.92;99372.04;4149357;84;21044;-84
2022/07/24 07:36:28;;;;;;;4.78;2.80;;;;;;;22.94;81.31;99373.66;4145117;84;21088;-83
2022/07/24 07:42:30;;;;;;;7.03;2.70;;;;;;;23.17;79.82;99383.83;4138858;84;22043;-83
2022/07/24 07:48:33;;;;;;;4.42;3.00;;;;;;;23.08;78.50;99385.75;4141548;84;21060;-83
2022/07/24 07:54:34;;;;;;;3.25;2.80;;;;;;;22.80;77.54;99388.07;4147951;84;21163;-83
2022/07/24 08:00:36;;;;;;;6.28;2.95;;;;;;;23.10;76.25;99395.22;4088724;84;21032;-83
2022/07/24 08:06:55;;;;;;;3.37;2.62;;;;;;;23.28;75.30;99397.46;4144869;84;21056;-84
2022/07/24 08:13:12;;;;;;;4.92;2.72;;;;;;;23.34;73.04;99395.66;4012026;89;21121;-83
2022/07/24 08:19:16;;;;;;;3.27;2.30;;;;;;;23.50;72.14;99394.71;4014681;87;21078;-83
2022/07/24 08:25:21;;;;;;;2.70;2.25;;;;;;;23.66;70.67;99400.14;4026146;87;21027;-83
2022/07/24 08:31:27;;;;;;;10.25;2.65;;;;;;;23.85;69.50;99396.27;4144014;84;21048;-83
2022/07/24 08:37:39;;;;;;;5.08;2.92;;;;;;;24.08;68.03;99401.42;4148183;84;21029;-83
2022/07/24 08:43:41;;;;;;;6.62;3.33;;;;;;;24.16;66.11;99395.12;4076133;85;21118;-84
2022/07/24 08:49:46;;;;;;;5.35;3.08;;;;;;;23.84;66.28;99401.06;4132435;84;21926;-84
2022/07/24 08:55:55;;;;;;;5.45;3.77;;;;;;;23.73;65.72;99404.06;4146652;84;21021;-84
2022/07/24 09:01:56;;;;;;;4.62;4.15;;;;;;;23.83;64.41;99400.91;4115673;85;21593;-84
2022/07/24 09:08:12;;;;;;;5.47;3.75;;;;;;;23.77;63.07;99403.34;4116205;85;21027;-85
2022/07/24 09:14:31;;;;;;;7.35;4.28;;;;;;;23.93;63.68;99403.92;4114248;85;21091;-83
2022/07/24 09:20:38;;;;;;;5.40;3.77;;;;;;;24.02;61.28;99405.44;4106797;85;21652;-84
2022/07/24 09:26:56;;;;;;;5.22;3.30;;;;;;;23.45;62.03;99406.45;4110343;85;21052;-84
2022/07/24 09:33:15;;;;;;;6.40;3.52;;;;;;;23.98;61.88;99401.98;4110684;85;20994;-84
2022/07/24 09:39:18;;;;;;;4.67;3.60;;;;;;;24.23;61.21;99410.84;4090964;85;21085;-82
2022/07/24 09:45:21;;;;;;;4.12;3.12;;;;;;;24.18;61.70;99404.45;4120498;84;21565;-84
2022/07/24 09:51:28;;;;;;;4.45;2.92;;;;;;;25.02;60.65;99415.16;4122040;86;21011;-83
2022/07/24 09:57:37;;;;;;;4.30;3.08;;;;;;;25.85;59.84;99398.02;4076630;86;20989;-83
2022/07/24 10:03:41;;;;;;;5.92;3.05;;;;;;;26.62;58.90;99389.47;4116927;85;21065;-83
2022/07/24 10:09:48;;;;;;;4.35;3.40;;;;;;;26.73;58.11;99391.17;4077803;86;20991;-83
2022/07/24 10:16:15;;;;;;;6.80;3.40;;;;;;;26.90;57.37;99392.34;4145720;84;21548;-85
2022/07/24 10:22:23;;;;;;;6.17;3.58;;;;;;;27.00;57.01;99388.23;4084353;85;21028;-84
2022/07/24 10:28:43;;;;;;;5.55;4.03;;;;;;;26.48;56.98;99389.52;4083243;86;21598;-85
2022/07/24 10:35:16;;;;;;;5.25;3.67;;;;;;;26.42;56.08;99377.35;4114190;85;21561;-84
2022/07/24 10:41:25;;;;;;;4.58;3.22;;;;;;;26.81;56.18;99379.75;3996926;86;21712;-84
2022/07/24 10:47:32;;;;;;;3.60;3.02;;;;;;;27.51;55.29;99369.19;4113469;84;21597;-84
2022/07/24 10:53:45;;;;;;;5.03;3.10;;;;;;;27.11;54.05;99373.80;4085967;85;21040;-84
2022/07/24 10:59:49;;;;;;;2.55;2.35;;;;;;;26.96;54.39;99370.14;4109800;85;21077;-85
2022/07/24 11:06:12;;;;;;;;;;;;;;;27.52;52.93;99364.48;4044130;86;21038;-84
2022/07/24 11:12:31;;;;;;;5.37;2.60;;;;;;;28.28;52.12;99355.22;4152223;84;20149;-83
2022/07/24 11:18:32;;;;;;;4.37;2.42;;;;;;;29.03;52.48;99351.16;4076141;85;21036;-85
2022/07/24 11:24:35;;;;;;;4.87;2.65;;;;;;;29.65;51.32;99348.67;4074842;86;21055;-85
2022/07/24 11:30:43;;;;;;;2.85;2.22;;;;;;;30.08;50.23;99334.90;4136262;84;21127;-85
2022/07/24 11:36:48;;;;;;;3.35;2.08;;;;;;;30.13;49.27;99334.16;4065531;86;21043;-85
2022/07/24 11:43:01;;;;;;;3.60;2.80;;;;;;;30.24;47.99;99333.53;4134425;84;21119;-85
2022/07/24 11:49:10;;;;;;;4.40;2.42;;;;;;;29.37;46.89;99330.61;4061872;85;21308;-85
2022/07/24 11:55:16;;;;;;;4.28;2.30;;;;;;;29.07;46.81;99327.78;4019477;87;21111;-85
2022/07/24 12:01:24;;;;;;;3.50;2.30;;;;;;;29.16;46.84;99322.66;3996489;87;21144;-84
2022/07/24 12:07:31;;;;;;;3.75;2.90;;;;;;;29.05;46.01;99324.67;4117615;85;21045;-84
2022/07/24 12:13:33;;;;;;;3.90;2.50;;;;;;;29.04;45.89;99313.23;4103142;85;21783;-85
2022/07/24 12:19:35;;;;;;;2.67;2.47;;;;;;;28.90;45.55;99313.45;4064324;86;22040;-85
2022/07/24 12:25:39;;;;;;;3.22;2.65;;;;;;;28.54;44.88;99303.30;4018879;87;21054;-85
2022/07/24 12:31:44;;;;;;;3.02;2.72;;;;;;;28.35;44.12;99297.71;4027916;88;21483;-84
2022/07/24 12:37:49;;;;;;;6.10;3.23;;;;;;;28.04;45.08;99305.90;4044525;86;21042;-85
2022/07/24 12:44:06;;;;;;;4.30;3.58;;;;;;;27.67;44.71;99294.23;4010889;87;21555;-85
2022/07/24 12:50:14;;;;;;;4.20;3.00;;;;;;;27.70;45.00;99297.48;4103948;86;21035;-83
2022/07/24 12:56:18;;;;;;;4.28;3.40;;;;;;;27.27;44.72;99306.58;4077548;86;21488;-85
2022/07/24 13:02:27;;;;;;;4.78;3.42;;;;;;;26.94;45.48;99305.84;4094862;85;21056;-85
2022/07/24 13:08:41;;;;;;;3.25;2.95;;;;;;;26.64;45.28;99308.37;4011516;87;21051;-85
2022/07/24 13:14:45;;;;;;;8.53;5.87;;;;;;;26.62;45.20;99296.81;4003706;87;21031;-84
2022/07/24 13:20:49;;;;;;;3.87;3.25;;;;;;;26.60;45.48;99299.30;4084368;86;21013;-84
2022/07/24 13:26:57;;;;;;;3.50;3.20;;;;;;;26.38;45.44;99299.56;4080564;86;21563;-84
2022/07/24 13:33:04;;;;;;;3.62;3.22;;;;;;;26.07;45.63;99291.43;4078497;86;21098;-85
2022/07/24 13:39:13;;;;;;;5.25;3.40;;;;;;;25.88;45.67;99286.30;4076808;86;21046;-84
2022/07/24 13:45:22;;;;;;;3.50;3.20;;;;;;;25.87;46.81;99285.51;4075504;85;21122;-85
2022/07/24 13:51:25;;;;;;;4.58;3.40;;;;;;;25.92;46.40;99278.48;4077415;86;21090;-84
2022/07/24 13:57:36;;;;;;;3.58;3.10;;;;;;;25.94;45.96;99273.98;4141746;83;21068;-84
2022/07/24 14:03:41;;;;;;;4.15;3.35;;;;;;;25.85;45.56;99262.79;4143523;84;21035;-84
2022/07/24 14:09:43;;;;;;;3.22;2.75;;;;;;;25.80;45.53;99269.64;4141696;84;21198;-84
2022/07/24 14:15:45;;;;;;;3.95;3.02;;;;;;;25.88;45.58;99262.45;4134170;84;21620;-84
2022/07/24 14:21:51;;;;;;;3.58;3.10;;;;;;;25.97;45.23;99270.84;4140125;84;21049;-86
2022/07/24 14:27:53;;;;;;;3.83;3.30;;;;;;;25.94;45.09;99266.17;4145892;84;21038;-85
2022/07/24 14:33:55;;;;;;;5.35;3.22;;;;;;;25.84;45.71;99261.86;4143231;84;21074;-85
2022/07/24 14:40:00;;;;;;;5.12;3.85;;;;;;;25.81;45.33;99259.35;4145039;84;21147;-84
2022/07/24 14:46:05;;;;;;;6.47;2.98;;;;;;;25.76;45.19;99249.41;4053576;85;21095;-85
2022/07/24 14:52:06;;;;;;;4.17;3.15;;;;;;;25.68;44.83;99249.58;4079308;86;21118;-84
2022/07/24 14:58:09;;;;;;;3.65;2.83;;;;;;;25.59;44.53;99247.56;4138682;84;21793;-84
2022/07/24 15:04:15;;;;;;;3.05;2.60;;;;;;;25.59;44.53;99247.56;4145339;84;21512;-85
2022/07/24 15:10:16;;;;;;;2.70;2.42;;;;;;;25.64;44.04;99246.94;4140917;84;21088;-84
2022/07/24 15:16:23;;;;;;;4.08;2.35;;;;;;;25.63;43.73;99245.39;4010246;87;21622;-83
2022/07/24 15:22:25;;;;;;;4.35;2.50;;;;;;;25.44;44.16;99210.23;4014584;87;21605;-83
2022/07/24 15:28:26;;;;;;;3.62;2.50;;;;;;;25.47;44.52;99239.33;4010592;89;21107;-84
2022/07/24 15:34:35;;;;;;;2.52;2.20;;;;;;;25.18;44.19;99200.59;4153586;84;21020;-83
2022/07/24 15:40:36;;;;;;;4.00;2.42;;;;;;;25.19;43.97;99210.54;4144290;84;21543;-85
2022/07/24 15:46:44;;;;;;;2.58;2.30;;;;;;;25.21;44.20;99222.67;4139709;84;21036;-85
2022/07/24 15:52:48;;;;;;;3.47;2.22;;;;;;;25.21;44.20;99222.67;4139703;84;21112;-83
2022/07/24 15:58:50;;;;;;;2.85;2.37;;;;;;;25.12;44.69;99226.89;4138101;84;21012;-83
2022/07/24 16:04:57;;;;;;;3.75;2.30;;;;;;;25.08;44.63;99224.84;4141690;84;21130;-83
2022/07/24 16:10:58;;;;;;;3.25;2.60;;;;;;;25.03;44.11;99220.65;4150238;84;21088;-83
2022/07/24 16:17:02;;;;;;;2.45;2.20;;;;;;;24.95;44.72;99218.64;4142084;84;21076;-84
2022/07/24 16:23:08;;;;;;;3.50;2.02;;;;;;;24.79;45.22;99220.33;4122970;84;21567;-84
2022/07/24 16:29:15;;;;;;;3.10;2.00;;;;;;;24.70;45.01;99213.33;4140017;84;21068;-83
2022/07/24 16:35:21;;;;;;;4.47;2.20;;;;;;;24.67;44.98;99209.42;4141865;84;21556;-84
2022/07/24 16:41:27;;;;;;;3.87;2.40;;;;;;;24.58;45.54;99207.38;4134712;84;21127;-83
2022/07/24 16:47:30;;;;;;;3.87;1.98;;;;;;;24.49;45.76;99210.13;4109953;85;22098;-85
2022/07/24 16:53:33;;;;;;;2.83;2.12;;;;;;;24.37;45.83;99205.45;3958770;86;9999786;-84
2022/07/24 16:59:35;;;;;;;3.40;2.27;;;;;;;24.25;46.03;99207.75;4082521;86;21077;-83
2022/07/24 17:05:37;;;;;;;2.20;2.00;;;;;;;24.15;46.38;99207.55;4110517;85;21585;-83
2022/07/24 17:11:38;;;;;;;2.52;1.80;;;;;;;24.11;46.15;99208.94;4072425;86;21880;-85
2022/07/24 17:17:57;;;;;;;2.55;2.08;;;;;;;23.90;46.72;99202.14;4059532;86;21054;-83
2022/07/24 17:23:59;;;;;;;4.05;1.62;;;;;;;23.80;47.16;99207.55;4147838;84;21040;-83
2022/07/24 17:30:04;;;;;;;3.65;2.00;;;;;;;23.65;47.37;99212.74;4112556;85;21073;-83
2022/07/24 17:36:12;;;;;;;2.97;1.90;;;;;;;23.51;47.21;99202.11;4056525;85;21121;-84
2022/07/24 17:42:14;;;;;;;3.35;1.60;;;;;;;23.45;47.16;99208.09;4108882;85;21045;-83
2022/07/24 17:48:16;;;;;;;2.58;1.80;;;;;;;23.34;47.13;99214.09;4111298;85;21054;-83
2022/07/24 17:54:22;;;;;;;1.75;1.50;;;;;;;23.21;47.09;99212.73;4091195;85;21045;-83
2022/07/24 18:00:25;;;;;;;3.35;2.05;;;;;;;23.12;47.11;99209.08;4115976;85;21017;-83
2022/07/24 18:06:26;;;;;;;4.25;1.98;;;;;;;22.95;47.48;99210.50;4081341;85;21063;-83
2022/07/24 18:12:28;;;;;;;2.33;1.90;;;;;;;22.86;47.39;99217.41;4114953;85;21061;-83
2022/07/24 18:18:30;;;;;;;2.42;1.87;;;;;;;22.67;47.61;99237.39;4089987;85;21897;-83
2022/07/24 18:24:33;;;;;;;3.58;1.90;;;;;;;22.54;48.20;99235.84;4102824;85;21007;-82
2022/07/24 18:30:35;;;;;;;4.97;2.37;;;;;;;22.39;48.58;99236.12;4114396;85;21083;-83
2022/07/24 18:36:38;;;;;;;3.83;2.33;;;;;;;22.12;49.06;99244.95;4108465;85;21041;-83
2022/07/24 18:42:40;;;;;;;2.40;2.00;;;;;;;21.88;49.73;99243.70;4113997;85;21680;-83
2022/07/24 18:48:47;;;;;;;2.65;2.00;;;;;;;21.82;49.73;99255.83;4097563;85;21001;-83
2022/07/24 18:54:52;;;;;;;4.20;2.22;;;;;;;21.69;50.13;99258.57;4095407;85;21136;-83
2022/07/24 19:00:56;;;;;;;2.85;2.08;;;;;;;21.54;50.76;99258.22;4100677;85;21037;-83
2022/07/24 19:07:07;;;;;;;5.15;2.37;;;;;;;21.31;51.19;99263.27;4091164;85;21066;-83
2022/07/24 19:13:10;;;;;;;4.75;2.83;;;;;;;21.22;51.79;99276.42;4096594;85;21041;-83
2022/07/24 19:19:13;;;;;;;11.97;6.15;;;;;;;21.09;52.20;99287.34;4074900;87;21103;-82
2022/07/24 19:25:15;;;;;;;7.42;4.72;;;;;;;20.76;52.86;99285.19;3990638;88;21075;-83
2022/07/24 19:31:16;;;;;;;5.65;3.83;;;;;;;20.43;54.03;99287.80;4015575;87;21077;-83
2022/07/24 19:37:22;;;;;;;5.42;3.27;;;;;;;20.14;54.93;99286.87;4089120;85;21362;-83
2022/07/24 19:43:29;;;;;;;6.58;3.50;;;;;;;19.78;55.78;99294.41;4073240;85;21102;-83
2022/07/24 19:49:40;;;;;;;4.78;3.30;;;;;;;19.58;56.09;99288.86;3965436;85;9999686;-82
2022/07/24 19:55:43;;;;;;;5.45;3.40;;;;;;;19.32;57.08;99291.17;4097136;85;21691;-83
2022/07/24 20:01:44;;;;;;;4.92;3.30;;;;;;;19.06;58.96;99293.41;4077381;86;22004;-83
2022/07/24 20:07:49;;;;;;;6.30;3.30;;;;;;;18.85;59.07;99293.01;4002764;87;21936;-82
2022/07/24 20:13:54;;;;;;;4.93;3.07;;;;;;;18.67;60.35;99298.84;4003364;87;21134;-82
2022/07/24 20:19:59;;;;;;;5.35;2.87;;;;;;;18.52;61.12;99298.91;4069829;86;21071;-82
2022/07/24 20:26:01;;;;;;;11.03;3.40;;;;;;;18.30;61.43;99303.18;4006304;87;21047;-82
2022/07/24 20:32:05;;;;;;;5.55;3.42;;;;;;;18.04;61.95;99308.13;4089779;84;21012;-81
2022/07/24 20:38:07;;;;;;;9.18;3.60;;;;;;;17.88;63.15;99318.42;4079652;86;21031;-82
2022/07/24 20:44:12;;;;;;;8.28;4.28;;;;;;;17.77;63.98;99323.91;3995988;87;21108;-82
2022/07/24 20:50:14;;;;;;;8.85;4.33;;;;;;;17.66;64.08;99323.25;4072082;86;21091;-82
2022/07/24 20:56:18;;;;;;;6.90;3.75;;;;;;;17.50;64.91;99322.45;4075055;86;21567;-82
2022/07/24 21:02:22;;;;;;;16.52;4.37;;;;;;;17.41;66.00;99324.90;4055233;86;21112;-82
2022/07/24 21:08:24;;;;;;;7.05;4.10;;;;;;;17.28;66.71;99336.88;4076017;86;21384;-83
2022/07/24 21:14:28;;;;;;;6.28;4.25;;;;;;;17.14;66.92;99328.94;4070731;85;21039;-82
2022/07/24 21:20:31;;;;;;;4.87;4.20;;;;;;;16.93;67.62;99334.66;4074028;86;21053;-83
2022/07/24 21:26:32;;;;;;;7.08;3.87;;;;;;;16.80;68.27;99339.11;4087093;85;20979;-82
2022/07/24 21:32:34;;;;;;;5.37;4.15;;;;;;;16.67;69.00;99341.40;4138279;84;21096;-82
2022/07/24 21:38:35;;;;;;;6.10;4.42;;;;;;;16.51;69.58;99340.53;4130775;84;21578;-82
2022/07/24 21:44:37;;;;;;;7.00;4.08;;;;;;;16.40;69.94;99344.52;4143169;84;21535;-82
2022/07/24 21:50:40;;;;;;;10.00;4.42;;;;;;;16.28;70.96;99348.56;4147430;84;21020;-82
2022/07/24 21:56:44;;;;;;;8.08;4.45;;;;;;;16.19;70.99;99343.28;4145884;84;21481;-82
2022/07/24 22:02:45;;;;;;;7.50;4.60;;;;;;;16.09;71.55;99355.17;4148631;83;21037;-82
2022/07/24 22:08:47;;;;;;;6.12;4.37;;;;;;;15.96;72.21;99345.79;4131071;83;21115;-83
2022/07/24 22:14:49;;;;;;;6.58;4.10;;;;;;;15.82;72.97;99351.38;4111939;84;21099;-82
2022/07/24 22:20:55;;;;;;;5.70;4.42;;;;;;;15.71;73.78;99347.88;4114742;84;21068;-82
2022/07/24 22:26:57;;;;;;;7.15;4.30;;;;;;;15.69;74.11;99350.42;4148801;84;21060;-82
2022/07/24 22:32:59;;;;;;;5.97;4.60;;;;;;;15.58;74.56;99356.56;4135430;84;21091;-81
2022/07/24 22:39:04;;;;;;;6.45;4.62;;;;;;;15.52;74.65;99349.09;4131731;84;21389;-81
2022/07/24 22:45:06;;;;;;;6.30;4.37;;;;;;;15.39;75.00;99342.45;4135913;84;21813;-82
2022/07/24 22:51:11;;;;;;;6.75;4.85;;;;;;;15.21;75.55;99347.17;4108035;85;21071;-83
2022/07/24 22:57:14;;;;;;;8.35;4.95;;;;;;;15.14;75.68;99347.97;4092485;85;21684;-82
2022/07/24 23:03:21;;;;;;;6.30;4.78;;;;;;;15.08;75.97;99342.66;4089855;85;21112;-82
2022/07/24 23:09:23;;;;;;;9.83;5.50;;;;;;;14.91;76.61;99338.58;4113472;85;21029;-82
2022/07/24 23:15:25;;;;;;;8.10;5.22;;;;;;;14.78;76.81;99349.21;4111796;85;21071;-82
2022/07/24 23:21:32;;;;;;;8.38;5.80;;;;;;;14.65;77.30;99337.58;4114348;85;21133;-82
2022/07/24 23:27:37;;;;;;;9.53;5.33;;;;;;;14.64;77.69;99325.79;3971311;87;21059;-82
2022/07/24 23:33:38;;;;;;;14.73;5.60;;;;;;;14.72;77.77;99334.84;4000396;86;21152;-82
2022/07/24 23:39:41;;;;;;;7.72;5.10;;;;;;;14.60;78.00;99328.32;3995527;87;21694;-82
2022/07/24 23:45:43;;;;;;;8.23;4.78;;;;;;;14.48;78.62;99330.09;4131122;84;21072;-81
2022/07/24 23:51:49;;;;;;;6.75;5.22;;;;;;;14.51;79.05;99326.55;4071836;86;21945;-82
2022/07/24 23:57:53;;;;;;;7.45;4.53;;;;;;;14.39;78.97;99326.95;3969819;88;21076;-81
